createdAt,value
2023-02-12T00:01:43.457Z,24.30
2023-02-12T00:04:12.326Z,24.30
2023-02-12T00:06:41.517Z,24.30
2023-02-12T00:09:10.512Z,24.40
2023-02-12T00:11:39.390Z,24.40
2023-02-12T00:14:08.286Z,24.40
2023-02-12T00:16:37.254Z,24.50
2023-02-12T00:19:10.648Z,24.50
2023-02-12T00:21:39.582Z,24.50
2023-02-12T00:24:08.859Z,24.60
2023-02-12T00:26:38.225Z,24.70
2023-02-12T00:29:07.157Z,24.80
2023-02-12T00:31:36.127Z,24.80
2023-02-12T00:34:05.093Z,24.90
2023-02-12T00:36:34.700Z,25.00
2023-02-12T00:39:03.839Z,25.10
2023-02-12T00:41:32.908Z,25.20
2023-02-12T00:44:01.958Z,25.30
2023-02-12T00:46:30.948Z,25.40
2023-02-12T00:48:59.922Z,25.50
2023-02-12T00:51:28.783Z,25.60
2023-02-12T00:53:57.722Z,25.70
2023-02-12T00:56:26.766Z,25.80
2023-02-12T00:58:55.648Z,26.00
2023-02-12T01:01:24.595Z,26.10
2023-02-12T01:03:53.496Z,26.20
2023-02-12T01:06:22.418Z,26.40
2023-02-12T01:08:54.782Z,26.50
2023-02-12T01:11:23.847Z,26.70
2023-02-12T01:13:52.816Z,26.80
2023-02-12T01:16:24.545Z,27.00
2023-02-12T01:18:55.995Z,27.10
2023-02-12T01:21:30.635Z,27.30
2023-02-12T01:24:00.443Z,27.50
2023-02-12T01:26:30.982Z,27.60
2023-02-12T01:29:02.789Z,27.80
2023-02-12T01:31:34.610Z,28.00
2023-02-12T01:34:03.690Z,28.10
2023-02-12T01:36:33.104Z,28.30
2023-02-12T01:39:04.263Z,28.40
2023-02-12T01:41:37.082Z,28.60
2023-02-12T01:44:16.575Z,28.80
2023-02-12T01:46:47.056Z,28.90
2023-02-12T01:49:39.137Z,29.10
2023-02-12T01:52:21.289Z,29.20
2023-02-12T01:54:52.092Z,29.40
2023-02-12T01:57:21.627Z,29.50
2023-02-12T01:59:54.507Z,29.60
2023-02-12T02:02:23.541Z,29.80
2023-02-12T02:05:03.219Z,30.00
2023-02-12T02:07:32.752Z,30.20
2023-02-12T02:10:03.277Z,30.30
2023-02-12T02:12:51.106Z,30.50
2023-02-12T02:15:20.202Z,30.60
2023-02-12T02:17:57.026Z,30.60
2023-02-12T02:20:57.017Z,30.70
2023-02-12T02:23:49.863Z,30.80
2023-02-12T02:26:49.537Z,30.90
2023-02-12T02:29:36.673Z,31.00
2023-02-12T02:32:16.612Z,31.20
2023-02-12T02:34:57.406Z,31.30
2023-02-12T02:37:30.564Z,31.50
2023-02-12T02:40:14.669Z,31.70
2023-02-12T02:43:12.300Z,31.80
2023-02-12T02:45:53.098Z,32.00
2023-02-12T02:48:35.674Z,32.10
2023-02-12T02:51:30.564Z,32.30
2023-02-12T02:54:22.392Z,32.40
2023-02-12T02:56:54.408Z,32.60
2023-02-12T02:59:32.985Z,32.80
2023-02-12T03:02:10.457Z,32.90
2023-02-12T03:04:52.571Z,33.10
2023-02-12T03:07:23.562Z,33.20
2023-02-12T03:10:01.028Z,33.20
2023-02-12T03:12:37.097Z,33.40
2023-02-12T03:15:22.960Z,33.40
2023-02-12T03:17:53.426Z,33.30
2023-02-12T03:20:47.459Z,33.40
2023-02-12T03:23:20.886Z,33.50
2023-02-12T03:26:14.339Z,33.50
2023-02-12T03:28:43.275Z,33.60
2023-02-12T03:31:26.117Z,33.60
2023-02-12T03:34:20.435Z,33.70
2023-02-12T03:36:55.690Z,33.70
2023-02-12T03:39:27.487Z,33.80
2023-02-12T03:42:07.152Z,34.00
2023-02-12T03:45:04.597Z,34.10
2023-02-12T03:47:58.056Z,34.10
2023-02-12T03:51:06.774Z,34.10
2023-02-12T03:53:35.791Z,34.20
2023-02-12T03:56:14.901Z,34.30
2023-02-12T03:58:45.671Z,34.30
2023-02-12T04:01:15.492Z,34.30
2023-02-12T04:03:45.019Z,34.20
2023-02-12T04:06:26.885Z,34.30
2023-02-12T04:08:58.319Z,34.40
2023-02-12T04:11:36.361Z,34.50
2023-02-12T04:14:23.496Z,34.60
2023-02-12T04:17:01.940Z,34.60
2023-02-12T04:20:10.626Z,34.60
2023-02-12T04:23:02.160Z,34.80
2023-02-12T04:25:40.100Z,35.00
